Hlavní strana
METAR-TAF:

METAR-TAF

Letiště :

In Aménas, Alžírsko

zeměpisná šířka: 28-03N, zeměpisná délka: 009-38E, výška: 562 m

Aktuální stav počasí

Zpráva byla vytvořena před 1 hodinou a 4 minutami, v 10:00 UTC
Jihovýchodní vítr 8 kt
Teplota 25°C
Vlhkost vzduchu 15%
Tlak 1016 hPa
Viditelnost 10 km a více
Žádná oblačnost pod 1500 m, nevyskytují se cumulonimby.

METAR: DAUZ 011000Z 14008KT CAVOK 25/M03 Q1016

Čas: 12:04 (11:04 UTC)

Předpověď počasí

Zpráva byla vytvořena před 6 hodinami a 4 minutami, v 05:00 UTC
Předpověď platná od 01 v 06 UTC do 02 v 06 UTC
Východojihovýchodní vítr 10 kt
Viditelnost 10 km a více
Žádná oblačnost pod 1500 m, nevyskytují se cumulonimby.
Dočasný
od 01 v 14 UTC do 01 v 18 UTC
Severozápadní vítr 10 kt
Změna
od 01 v 19 UTC do 01 v 22 UTC
vítr z různých směrů 2 kt

TAF: DAUZ 010500Z 0106/0206 12010KT CAVOK TEMPO 0114/0118 32010KT BECMG 0119/0122 VRB02KT

Stav a předpovědi počasí z více než 4 000 letišť (zprávy METAR a TAF).

Červené a žluté tečky na mapě představují dostupné meteorologické stanice.

Když kurzor umístíte na tečku, zobrazí se název stanice.

Pak kliknutím zobrazíte stav a předpověď počasí.

Chcete-li změnit mapu, kliknutím na zelené tlačítko se znaménkem +mapu přiblížíte, kliknutím na zelené tlačítko se znaménkem – mapu oddálíte a kliknutím na zelené šipky přejdete na sousední mapy.


METAR-TAF: